Detalhes do Voo

Voltar

 DETALHES DO VÔO

Piloto: GLD080 Alexandre S. Aeronave: Pilatus Distância: 295NM
Origem: SBLO Destino: SBFL Duração: 2.14
Validação: Validado Tipo: Regular Matrícula: PR-GPD
ZFW: 8805 Block Fuel/Init FOB 490/0 Combustível em Voo 490
Passageiros: 0 Carga: 0 Alternativo: SBCT
Hora da Decolagem: 1650 Velocidade de Cruzeiro: 0120 Nível de Voo: FL230
Regra Visual: IFR ICAO da Aeronave: PC12 Unidade de Peso: Kg
Data: 02/08/2020 Observação: GOLD ACARS Rede: VATSIM
Acidentou?: Não Comentários do Validador: Pontuação do Voo 113.58

 ROTA

ROTA LON W48 FLN
REMARKS OPR/GOLD VIRTUAL AIRLINES PER/A RMK/FROM SBLO RMK/PIC GLD080

 PENALIDADES DO VOO

Para entender como cada item é pontuado, consulte as regras de avaliação.

Nenhuma penalidade registrada para este voo.

 ANÁLISE DO POUSO

Vento durante o pouso: 22º/11 kt Proa durante o pouso: 308
V/S do Pouso: -129 ft/min IAS do Pouso: 70 kt
Força G no pouso: 0.9008 G Bank no pouso: 2.31
Pitch no Pouso -1.12 Flaps no Pouso 0
Nav Lights ON Landing Lights ON
Beacon Lights ON Strobe Lights ON

 MAPA DO VOO

 PERFIL VERTICAL DO VOO

 EVENTOS PRINCIPAIS DO VOO

DATAEVENTOIASALTITUDE
2020-08-02 19:50:36 GOLD ACARS VERSION 0.1.3.000
2020-08-02 19:50:36 BOARDING01872
2020-08-02 19:52:58 TAXI LIGHTS ON01872
2020-08-02 19:52:58 TAXI LIGHTS OFF01872
2020-08-02 19:53:00 NAV LIGHTS ON01872
2020-08-02 19:58:17 BCN LIGHTS ON01521
2020-08-02 19:59:04 STARTING ENGINE 101521
2020-08-02 20:11:15 TAXI LIGHTS ON01872
2020-08-02 20:11:16 FLAP 33%01872
2020-08-02 20:15:35 TAXI TO THE RWY01872
2020-08-02 20:17:14 LND LIGHTS ON01872
2020-08-02 20:17:14 STB LIGHTS ON01872
2020-08-02 20:21:39 CLIMBING981897
2020-08-02 20:21:39 GEAR UP981897
2020-08-02 20:22:15 FLAP 0%1192571
2020-08-02 20:27:51 TAXI LIGHTS OFF14310141
2020-08-02 20:36:38 CRUISE12823001
2020-08-02 21:13:47 DESCEND19322930
2020-08-02 21:41:26 TAXI LIGHTS ON1789944
2020-08-02 21:41:27 LND LIGHTS ON1789920
2020-08-02 21:52:06 FLAP 33%1291115
2020-08-02 21:52:13 GEAR DOWN1161076
2020-08-02 21:52:17 FLAP 66%1071060
2020-08-02 21:52:19 FLAP 100%1041046
2020-08-02 21:54:51 LANDED7024
2020-08-02 21:55:17 TAXI TO THE GATE2924
2020-08-02 21:55:35 FLAP 33%1424
2020-08-02 21:55:36 FLAP 0%1424
2020-08-02 21:58:31 STOPPING ENGINE 1022
2020-08-02 21:58:48 FLIGHT FINISHED0-1106

 DADOS DO ACARS

DATA IAS GS ALTITUDE COMBUSTÍVEL USADO OAT FASE DO VOO
2020-08-02 19:52:36 0 0 1872 0 11 BOARDING
2020-08-02 19:53:36 0 0 1872 0 11 BOARDING
2020-08-02 19:54:37 0 0 1872 0 11 BOARDING
2020-08-02 19:55:37 0 0 1872 0 11 BOARDING
2020-08-02 19:56:37 0 0 1872 0 11 BOARDING
2020-08-02 19:57:37 0 0 1521 0 26 BOARDING
2020-08-02 19:58:38 0 0 1521 0 26 BOARDING
2020-08-02 19:59:38 0 0 1521 1 26 BOARDING
2020-08-02 20:00:38 0 0 1521 2 26 BOARDING
2020-08-02 20:01:38 0 0 1872 2 26 BOARDING
2020-08-02 20:02:39 0 0 1872 3 26 BOARDING
2020-08-02 20:03:39 0 0 1872 3 26 BOARDING
2020-08-02 20:04:39 0 0 1872 3 26 BOARDING
2020-08-02 20:05:40 0 0 1872 4 26 BOARDING
2020-08-02 20:06:40 0 0 1872 4 26 BOARDING
2020-08-02 20:07:40 0 0 1872 5 26 BOARDING
2020-08-02 20:08:40 0 0 1872 5 26 BOARDING
2020-08-02 20:09:41 0 0 1872 6 26 BOARDING
2020-08-02 20:10:41 0 0 1872 6 26 BOARDING
2020-08-02 20:11:41 0 0 1872 7 26 BOARDING
2020-08-02 20:12:42 0 0 1872 7 26 BOARDING
2020-08-02 20:13:42 0 0 1872 8 26 BOARDING
2020-08-02 20:14:42 0 0 1872 8 26 BOARDING
2020-08-02 20:15:42 9 12 1872 9 26 BOARDING
2020-08-02 20:16:43 7 7 1872 10 26 TAXI TO THE RWY
2020-08-02 20:17:43 0 0 1872 10 26 TAXI TO THE RWY
2020-08-02 20:18:43 0 0 1872 11 26 TAXI TO THE RWY
2020-08-02 20:19:44 0 0 1872 11 26 TAXI TO THE RWY
2020-08-02 20:20:44 10 10 1872 12 26 TAXI TO THE RWY
2020-08-02 20:21:44 100 98 1982 15 25 TAXI TO THE RWY
2020-08-02 20:22:44 157 166 3044 20 19 CLIMBING
2020-08-02 20:23:45 194 201 4106 25 16 CLIMBING
2020-08-02 20:24:45 190 200 5581 30 10 CLIMBING
2020-08-02 20:25:45 186 199 7094 35 3 CLIMBING
2020-08-02 20:26:45 159 174 8561 39 0 CLIMBING
2020-08-02 20:27:46 143 161 10023 43 -6 CLIMBING
2020-08-02 20:28:46 141 162 11530 47 -9 CLIMBING
2020-08-02 20:29:46 142 163 13043 51 -11 CLIMBING
2020-08-02 20:30:46 141 162 14543 55 -14 CLIMBING
2020-08-02 20:31:47 137 158 16047 59 -16 CLIMBING
2020-08-02 20:32:47 130 151 17536 63 -18 CLIMBING
2020-08-02 20:33:47 125 149 19012 67 -20 CLIMBING
2020-08-02 20:34:47 124 154 20527 71 -23 CLIMBING
2020-08-02 20:35:48 121 151 22021 74 -27 CLIMBING
2020-08-02 20:36:48 136 174 23024 78 -29 CLIMBING
2020-08-02 20:37:48 161 209 23000 82 -30 CRUISE
2020-08-02 20:38:49 179 234 23004 85 -30 CRUISE
2020-08-02 20:39:49 186 244 23001 89 -30 CRUISE
2020-08-02 20:40:49 188 247 23000 92 -30 CRUISE
2020-08-02 20:41:49 189 248 23000 96 -30 CRUISE
2020-08-02 20:42:50 188 249 23000 99 -28 CRUISE
2020-08-02 20:43:50 188 249 23000 103 -28 CRUISE
2020-08-02 20:44:50 189 250 23000 106 -28 CRUISE
2020-08-02 20:45:50 189 251 23000 109 -28 CRUISE
2020-08-02 20:46:51 190 251 23000 113 -28 CRUISE
2020-08-02 20:47:51 190 251 23000 116 -28 CRUISE
2020-08-02 20:48:51 190 252 23000 120 -28 CRUISE
2020-08-02 20:49:51 190 252 23000 124 -28 CRUISE
2020-08-02 20:50:52 190 252 23000 127 -28 CRUISE
2020-08-02 20:51:52 190 271 23002 131 -28 CRUISE
2020-08-02 20:52:52 190 270 23000 134 -28 CRUISE
2020-08-02 20:53:53 190 266 23000 138 -28 CRUISE
2020-08-02 20:54:53 190 250 23000 141 -28 CRUISE
2020-08-02 20:55:53 190 243 23000 145 -28 CRUISE
2020-08-02 20:56:54 190 246 23000 148 -28 CRUISE
2020-08-02 20:57:54 191 252 22985 152 -29 CRUISE
2020-08-02 20:58:54 190 253 23000 155 -29 CRUISE
2020-08-02 20:59:54 191 247 23001 159 -29 CRUISE
2020-08-02 21:00:55 191 245 23000 162 -29 CRUISE
2020-08-02 21:01:55 191 248 23000 166 -29 CRUISE
2020-08-02 21:02:55 191 249 23000 169 -29 CRUISE
2020-08-02 21:03:55 191 247 23000 173 -29 CRUISE
2020-08-02 21:04:56 191 248 23000 176 -29 CRUISE
2020-08-02 21:05:56 191 248 23000 180 -29 CRUISE
2020-08-02 21:06:56 191 248 23000 183 -29 CRUISE
2020-08-02 21:07:57 191 248 23000 187 -29 CRUISE
2020-08-02 21:08:57 191 248 23000 190 -29 CRUISE
2020-08-02 21:09:57 191 235 23002 194 -29 CRUISE
2020-08-02 21:10:57 191 239 23001 197 -29 CRUISE
2020-08-02 21:11:58 191 239 23000 201 -29 CRUISE
2020-08-02 21:12:58 191 238 23010 204 -29 CRUISE
2020-08-02 21:13:58 195 244 22851 208 -28 CRUISE
2020-08-02 21:14:58 203 254 22360 211 -27 DESCEND
2020-08-02 21:15:59 203 253 22002 215 -26 DESCEND
2020-08-02 21:16:59 198 245 21999 219 -26 DESCEND
2020-08-02 21:17:59 196 243 22000 222 -26 DESCEND
2020-08-02 21:18:59 195 242 22000 226 -26 DESCEND
2020-08-02 21:20:00 195 241 22000 230 -26 DESCEND
2020-08-02 21:21:00 195 241 22000 233 -26 DESCEND
2020-08-02 21:22:00 195 241 22000 237 -26 DESCEND
2020-08-02 21:23:00 195 241 22000 240 -26 DESCEND
2020-08-02 21:24:01 195 241 22000 244 -26 DESCEND
2020-08-02 21:25:01 195 241 22000 248 -26 DESCEND
2020-08-02 21:26:01 195 241 22000 251 -26 DESCEND
2020-08-02 21:27:01 195 241 22000 255 -26 DESCEND
2020-08-02 21:28:02 202 242 22033 259 -33 DESCEND
2020-08-02 21:29:02 200 239 22000 262 -33 DESCEND
2020-08-02 21:30:02 199 237 22000 266 -33 DESCEND
2020-08-02 21:31:03 202 241 21775 270 -32 DESCEND
2020-08-02 21:32:03 218 255 20680 273 -29 DESCEND
2020-08-02 21:33:03 205 238 19647 276 -26 DESCEND
2020-08-02 21:34:03 179 205 18433 276 -24 DESCEND
2020-08-02 21:35:04 170 194 17566 277 -22 DESCEND
2020-08-02 21:36:04 167 189 16362 278 -20 DESCEND
2020-08-02 21:37:04 168 189 15157 279 -19 DESCEND
2020-08-02 21:38:04 169 190 13961 279 -17 DESCEND
2020-08-02 21:39:05 171 193 12761 280 -15 DESCEND
2020-08-02 21:40:05 173 197 11562 281 -13 DESCEND
2020-08-02 21:41:05 177 199 10361 282 -10 DESCEND
2020-08-02 21:42:06 180 199 9152 283 -7 DESCEND
2020-08-02 21:43:06 182 198 7956 284 -4 DESCEND
2020-08-02 21:44:06 183 197 6751 285 -1 DESCEND
2020-08-02 21:45:06 185 195 5546 286 2 DESCEND
2020-08-02 21:46:07 187 197 4345 287 8 DESCEND
2020-08-02 21:47:07 166 176 3994 288 10 DESCEND
2020-08-02 21:48:07 147 155 3997 290 10 DESCEND
2020-08-02 21:49:07 140 148 3991 291 10 DESCEND
2020-08-02 21:50:08 167 177 3120 292 13 DESCEND
2020-08-02 21:51:08 174 181 2236 293 16 DESCEND
2020-08-02 21:52:08 126 129 1106 294 20 DESCEND
2020-08-02 21:53:08 93 90 494 295 20 DESCEND
2020-08-02 21:54:09 87 87 211 296 20 DESCEND
2020-08-02 21:55:09 38 35 24 297 21 DESCEND
2020-08-02 21:56:09 7 6 24 298 21 LANDED
2020-08-02 21:57:09 3 2 24 298 21 TAXI TO THE GATE
2020-08-02 21:58:10 24 14 24 299 21 TAXI TO THE GATE